Malabar, Florida
Current Conditions -  °F | °C
As of 8:53 AM on Thursday 27 Nov 2014 (Local Time) from KMLB Reporting Station
Clear Clear  
Wind Chill: 58°   Ceiling: Unl
Heat Index: 58°   Visibility: 10mi
Dew Point: 44°   Wind: 10mph
Humidity: 60%   Direction: 300°WNW
Pressure: 30.28"   Gusts: NA
Location:  28°N, 80.57°W
Report Text: KMLB 271353Z 30009KT 10SM CLR 14/07 A3028 RMK AO2 SLP251 T01440067
Loading
Personal Weather Stations






























Interactive Weather Map New forecast layout! Learn more

10-Day Weather Forecast

Advertisements
Track Severe Weather on mobile